Pagrindinis puslapis
METAR-TAF:

METAR-TAF

Oro uostai :

Mykolajivas, Ukraina

platuma: 47-03-29N, ilguma: 031-55-15E, Aukštis: 56 m

METAR: trūkstamas

Laikas: 23:06 (21:06 UTC)

Prognozė

Ataskaita buvo paskelbta 31 valandos ir 4 minutes, ne 14:02 UTC
Prognozė galioja nuo 14 metu 15 UTC su 14 metu 24 UTC
Vėjas 12 kt iš Rytų/Pietryčių su gūsio iki 21 kt
Matomumas: 2100 m
Su prošvaistėmis ne aukštis 400 ft
Su prošvaistėmis ne aukštis 1700 ft, Liūtiniai kamuoliniai debesys.
rūkana
Laikinai
nuo 14 metu 15 UTC su 14 metu 24 UTC
Matomumas: 0300 m
ne aukštis 200 ft
rūkas

TAF: UKON 141402Z 1415/1424 11006G11MPS 2100 BR BKN004 BKN017CB TX07/1415Z TN03/1424Z TEMPO 1415/1424 0300 FG VV002

Orai ataskaitas ir orų prognozės (METAR, TAF).

turimą stotys yra geltonos ir raudonos taškus žemėlapyje.

Perkelti pele per norėdami pamatyti stoties vardą.

Tada spustelėkite, norėdami matyti oro stebėjimo ir prognozės.

Norėdami pakeisti žemėlapį: spustelėkite ant žalios mygtukų su juodo kryžiaus žemyn,; žalią mygtuką su brūkšneliu, jei norite nutolinti; arba žalių rodyklių gretimoms žemėlapius.


METAR-TAF: